.
WxDataArchive / Data Records for 2013-12-08
2013-12-07 December 2013 2013-12-09

Data Records for Sunday, 08 December 2013

Time	Temp	Chill	HIndex	Humid	Dewpt	 Wind 	HiWind	WindDir	Rain 	Barom 
-----	----	-----	------	-----	-----	------	------	-------	-----	----- 
00:00	16.1	16.1	16.1	76	9.9	0	1	292	0.00	30.586 
00:05	16.2	16.2	16.2	76	10.0	0	2	292	0.00	30.586 
00:10	16.4	16.4	16.4	75	9.9	0	1	292	0.00	30.586 
00:15	16.5	16.5	16.5	75	10.0	0	1	292	0.00	30.581 
00:20	16.5	16.5	16.5	75	10.0	0	0	---	0.00	30.581 
00:25	16.5	16.5	16.5	75	10.0	0	1	292	0.00	30.581 
00:30	16.4	16.4	16.4	75	9.9	0	1	292	0.00	30.575 
00:35	16.4	16.4	16.4	75	9.9	0	2	292	0.00	30.575 
00:40	16.4	16.4	16.4	75	9.9	0	1	292	0.00	30.575 
00:45	16.4	16.4	16.4	75	9.9	0	0	---	0.00	30.571 
00:50	16.2	16.2	16.2	75	9.7	0	1	292	0.00	30.571 
00:55	16.2	16.2	16.2	75	9.7	0	0	---	0.00	30.571 
01:00	16.1	16.1	16.1	75	9.6	0	1	292	0.00	30.567 
01:05	16.1	16.1	16.1	76	9.9	0	2	292	0.00	30.567 
01:10	16.1	16.1	16.1	75	9.6	0	0	---	0.00	30.567 
01:15	16.1	16.1	16.1	76	9.9	0	1	292	0.00	30.571 
01:20	16.1	16.1	16.1	75	9.6	0	0	---	0.00	30.571 
01:25	16.1	16.1	16.1	75	9.6	0	0	---	0.00	30.571 
01:30	16.1	16.1	16.1	75	9.6	0	0	---	0.00	30.568 
01:35	16.1	16.1	16.1	76	9.9	0	1	292	0.00	30.568 
01:40	16.1	16.1	16.1	76	9.9	0	0	---	0.00	30.568 
01:45	16.1	16.1	16.1	76	9.9	0	0	---	0.00	30.561 
01:50	16.1	16.1	16.1	76	9.9	0	0	---	0.00	30.561 
01:55	16.1	16.1	16.1	76	9.9	0	1	292	0.00	30.561 
02:00	16.1	16.1	16.1	76	9.9	0	1	292	0.00	30.567 
02:05	16.1	16.1	16.1	76	9.9	0	1	292	0.00	30.567 
02:10	16.1	16.1	16.1	75	9.6	0	1	292	0.00	30.567 
02:15	16.1	16.1	16.1	75	9.6	0	1	292	0.00	30.567 
02:20	16.1	16.1	16.1	75	9.6	0	3	292	0.00	30.567 
02:25	16.1	16.1	16.1	75	9.6	0	1	292	0.00	30.567 
02:30	16.1	16.1	16.1	75	9.6	0	1	292	0.00	30.564 
02:35	16.1	16.1	16.1	75	9.6	0	2	292	0.00	30.564 
02:40	16.2	16.2	16.2	75	9.7	0	3	292	0.00	30.564 
02:45	16.2	16.2	16.2	75	9.7	0	1	292	0.00	30.550 
02:50	16.2	16.2	16.2	75	9.7	0	1	292	0.00	30.550 
02:55	16.2	16.2	16.2	75	9.7	0	2	315	0.00	30.550 
03:00	16.4	16.4	16.4	75	9.9	0	2	112	0.00	30.543 
03:05	16.5	16.5	16.5	75	10.0	1	7	90	0.00	30.543 
03:10	16.7	16.7	16.7	75	10.2	0	2	90	0.00	30.543 
03:15	16.7	16.7	16.7	74	9.9	1	3	90	0.00	30.562 
03:20	16.9	16.9	16.9	74	10.1	1	4	90	0.00	30.562 
03:25	17.0	17.0	17.0	73	9.9	1	5	90	0.00	30.562 
03:30	17.0	17.0	17.0	73	9.9	1	4	90	0.00	30.554 
03:35	17.2	17.2	17.2	73	10.1	0	3	90	0.00	30.554 
03:40	17.2	17.2	17.2	72	9.8	0	5	90	0.00	30.554 
03:45	17.3	17.3	17.3	72	9.8	0	3	90	0.00	30.537 
03:50	17.3	17.3	17.3	72	9.8	0	2	90	0.00	30.537 
03:55	17.5	17.5	17.5	72	10.0	0	4	90	0.00	30.537 
04:00	17.5	17.5	17.5	71	9.7	0	1	90	0.00	30.533 
04:05	17.7	17.7	17.7	71	9.9	1	2	90	0.00	30.533 
04:10	17.7	17.7	17.7	71	9.9	0	2	90	0.00	30.533 
04:15	17.7	17.7	17.7	71	9.9	0	6	90	0.00	30.526 
04:20	17.8	17.8	17.8	70	9.7	2	6	90	0.00	30.526 
04:25	17.8	17.8	17.8	70	9.7	1	4	112	0.00	30.526 
04:30	17.8	17.8	17.8	71	10.0	1	3	112	0.00	30.530 
04:35	17.8	17.8	17.8	71	10.0	1	6	112	0.00	30.530 
04:40	17.8	17.8	17.8	70	9.7	2	6	112	0.00	30.530 
04:45	17.8	17.8	17.8	71	10.0	1	6	112	0.00	30.530 
04:50	17.8	17.8	17.8	71	10.0	2	7	90	0.00	30.530 
04:55	17.8	17.8	17.8	71	10.0	2	5	90	0.00	30.530 
05:00	17.8	17.8	17.8	71	10.0	2	6	112	0.00	30.514 
05:05	17.8	17.8	17.8	71	10.0	2	6	112	0.00	30.514 
05:10	17.7	17.7	17.7	71	9.9	3	9	90	0.00	30.514 
05:15	17.7	17.7	17.7	72	10.2	2	8	90	0.00	30.507 
05:20	17.7	17.7	17.7	72	10.2	2	6	90	0.00	30.507 
05:25	17.7	17.7	17.7	72	10.2	2	6	90	0.00	30.507 
05:30	17.7	17.7	17.7	72	10.2	3	7	90	0.00	30.510 
05:35	17.7	17.7	17.7	72	10.2	2	6	90	0.00	30.510 
05:40	17.7	17.7	17.7	72	10.2	2	6	90	0.00	30.510 
05:45	17.7	17.7	17.7	72	10.2	2	7	112	0.00	30.515 
05:50	17.7	17.7	17.7	72	10.2	2	5	112	0.00	30.515 
05:55	17.7	17.7	17.7	72	10.2	3	7	90	0.00	30.515 
06:00	17.7	17.7	17.7	72	10.2	2	5	90	0.00	30.517 
06:05	17.7	17.7	17.7	72	10.2	2	5	90	0.00	30.517 
06:10	17.8	17.8	17.8	73	10.6	2	5	90	0.00	30.517 
06:15	17.8	17.8	17.8	73	10.6	2	7	90	0.00	30.503 
06:20	17.8	17.8	17.8	73	10.6	3	6	90	0.00	30.503 
06:25	17.8	17.8	17.8	73	10.6	1	6	112	0.00	30.503 
06:30	17.8	17.8	17.8	73	10.6	3	7	112	0.00	30.504 
06:35	17.8	17.8	17.8	73	10.6	2	6	112	0.00	30.504 
06:40	18.0	18.0	18.0	73	10.8	2	4	112	0.00	30.504 
06:45	18.0	18.0	18.0	73	10.8	2	5	68	0.00	30.493 
06:50	18.0	18.0	18.0	73	10.8	1	3	90	0.00	30.493 
06:55	18.0	18.0	18.0	73	10.8	1	4	90	0.00	30.493 
07:00	18.0	18.0	18.0	74	11.1	1	3	90	0.00	30.502 
07:05	18.1	18.1	18.1	73	10.9	1	5	90	0.00	30.502 
07:10	18.1	18.1	18.1	74	11.2	1	3	90	0.00	30.502 
07:15	18.1	18.1	18.1	74	11.2	0	2	90	0.00	30.510 
07:20	18.3	18.3	18.3	74	11.4	0	2	90	0.00	30.510 
07:25	18.3	18.3	18.3	74	11.4	0	2	90	0.00	30.510 
07:30	18.3	18.3	18.3	73	11.1	1	3	90	0.00	30.496 
07:35	18.3	18.3	18.3	74	11.4	0	3	90	0.00	30.496 
07:40	18.3	18.3	18.3	74	11.4	0	3	45	0.00	30.496 
07:45	18.4	18.4	18.4	74	11.5	1	4	90	0.00	30.491 
07:50	18.3	18.3	18.3	74	11.4	0	4	90	0.00	30.491 
07:55	18.3	18.3	18.3	74	11.4	0	3	45	0.00	30.491 
08:00	18.3	18.3	18.3	73	11.1	0	3	45	0.00	30.494 
08:05	18.3	18.3	18.3	74	11.4	0	2	45	0.00	30.494 
08:10	18.3	18.3	18.3	73	11.1	0	2	45	0.00	30.494 
08:15	18.3	18.3	18.3	73	11.1	1	5	45	0.00	30.486 
08:20	18.4	18.4	18.4	73	11.2	1	4	112	0.00	30.486 
08:25	18.4	18.4	18.4	73	11.2	1	5	112	0.00	30.486 
08:30	18.4	18.4	18.4	73	11.2	1	4	90	0.00	30.475 
08:35	18.4	18.4	18.4	73	11.2	1	4	90	0.00	30.475 
08:40	18.6	18.6	18.6	73	11.4	2	6	90	0.00	30.475 
08:45	18.6	18.6	18.6	73	11.4	3	10	112	0.00	30.448 
08:50	18.6	18.6	18.6	73	11.4	2	9	112	0.00	30.448 
08:55	18.6	18.6	18.6	73	11.4	3	10	112	0.00	30.448 
09:00	18.6	18.6	18.6	72	11.1	3	7	90	0.00	30.445 
09:05	18.8	18.8	18.8	73	11.6	3	8	90	0.00	30.445 
09:10	18.8	11.6	18.8	72	11.3	5	10	90	0.00	30.445 
09:15	18.8	11.6	18.8	72	11.3	5	12	90	0.00	30.445 
09:20	18.9	18.9	18.9	73	11.7	3	7	90	0.00	30.445 
09:25	19.1	19.1	19.1	73	11.9	3	9	90	0.00	30.445 
09:30	19.1	13.2	19.1	73	11.9	4	10	90	0.00	30.447 
09:35	19.2	19.2	19.2	73	12.0	3	10	90	0.00	30.447 
09:40	19.4	13.5	19.4	73	12.2	4	13	112	0.00	30.447 
09:45	19.4	13.5	19.4	72	11.9	4	12	90	0.00	30.438 
09:50	19.5	13.6	19.5	72	12.0	4	10	90	0.00	30.438 
09:55	19.7	13.9	19.7	72	12.2	4	11	90	0.00	30.438 
10:00	19.9	14.1	19.9	72	12.4	4	10	112	0.00	30.430 
10:05	20.2	20.2	20.2	73	13.0	1	6	90	0.00	30.430 
10:10	20.2	14.4	20.2	72	12.6	4	9	112	0.00	30.430 
10:15	20.3	14.6	20.3	72	12.7	4	12	112	0.00	30.414 
10:20	20.5	14.8	20.5	72	12.9	4	11	112	0.00	30.414 
10:25	20.5	20.5	20.5	72	12.9	3	10	90	0.00	30.414 
10:30	20.6	20.6	20.6	72	13.0	2	7	90	0.00	30.422 
10:35	20.8	13.9	20.8	71	12.9	5	13	90	0.00	30.422 
10:40	21.0	15.4	21.0	72	13.4	4	11	90	0.00	30.422 
10:45	21.3	21.3	21.3	71	13.4	2	7	90	0.00	30.416 
10:50	21.4	15.8	21.4	71	13.5	4	11	90	0.00	30.416 
10:55	21.4	15.8	21.4	71	13.5	4	11	90	0.00	30.416 
11:00	21.8	16.3	21.8	71	13.9	4	9	90	0.00	30.414 
11:05	22.1	15.4	22.1	70	13.8	5	11	112	0.00	30.414 
11:10	22.1	15.4	22.1	71	14.2	5	11	90	0.00	30.414 
11:15	22.2	16.8	22.2	70	13.9	4	10	90	0.00	30.411 
11:20	22.5	17.1	22.5	70	14.2	4	10	90	0.00	30.411 
11:25	22.7	17.3	22.7	70	14.4	4	14	90	0.00	30.411 
11:30	22.7	16.2	22.7	70	14.4	5	11	112	0.00	30.396 
11:35	22.9	16.4	22.9	70	14.6	5	12	90	0.00	30.396 
11:40	23.0	16.5	23.0	69	14.4	5	14	90	0.00	30.396 
11:45	23.0	15.5	23.0	69	14.4	6	12	90	0.00	30.379 
11:50	23.3	23.3	23.3	70	15.0	3	9	90	0.00	30.379 
11:55	23.5	17.1	23.5	69	14.9	5	12	90	0.00	30.379 
12:00	23.6	17.2	23.6	69	14.9	5	12	90	0.00	30.356 
12:05	23.8	17.4	23.8	69	15.1	5	11	90	0.00	30.356 
12:10	23.9	16.6	23.9	69	15.2	6	13	90	0.00	30.356 
12:15	24.2	16.9	24.2	68	15.2	6	13	90	0.00	30.336 
12:20	24.2	16.9	24.2	68	15.2	6	12	90	0.00	30.336 
12:25	24.7	17.5	24.7	68	15.7	6	13	90	0.00	30.336 
12:30	24.8	16.8	24.8	68	15.8	7	14	90	0.00	30.327 
12:35	25.0	17.9	25.0	68	16.0	6	15	90	0.00	30.327 
12:40	25.3	18.3	25.3	67	15.9	6	12	90	0.00	30.327 
12:45	25.1	18.0	25.1	68	16.1	6	14	90	0.00	30.323 
12:50	25.1	19.0	25.1	68	16.1	5	11	90	0.00	30.323 
12:55	25.3	17.4	25.3	68	16.2	7	13	90	0.00	30.323 
13:00	25.4	18.4	25.4	68	16.3	6	11	90	0.00	30.316 
13:05	25.7	18.7	25.7	67	16.3	6	21	90	0.00	30.316 
13:10	26.0	18.3	26.0	66	16.2	7	13	90	0.00	30.316 
13:15	26.3	19.4	26.3	62	15.1	6	15	112	0.00	30.310 
13:20	26.4	18.7	26.4	61	14.8	7	13	112	0.00	30.310 
13:25	26.6	20.7	26.6	60	14.6	5	13	90	0.00	30.310 
13:30	26.6	19.0	26.6	60	14.6	7	12	112	0.00	30.297 
13:35	26.6	19.0	26.6	60	14.6	7	13	90	0.00	30.297 
13:40	26.6	20.7	26.6	60	14.6	5	13	90	0.00	30.297 
13:45	26.7	20.9	26.7	61	15.1	5	12	90	0.00	30.282 
13:50	26.7	19.9	26.7	61	15.1	6	11	90	0.00	30.282 
13:55	26.7	19.9	26.7	60	14.7	6	12	90	0.00	30.282 
14:00	26.7	19.1	26.7	60	14.7	7	15	90	0.00	30.265 
14:05	26.6	20.7	26.6	62	15.4	5	13	112	0.00	30.265 
14:10	26.6	19.8	26.6	61	15.0	6	20	90	0.00	30.265 
14:15	26.6	19.8	26.6	62	15.4	6	13	112	0.00	30.258 
14:20	26.6	19.0	26.6	62	15.4	7	15	90	0.00	30.258 
14:25	26.6	19.8	26.6	62	15.4	6	12	90	0.00	30.258 
14:30	26.6	20.7	26.6	62	15.4	5	12	90	0.00	30.250 
14:35	26.4	19.6	26.4	62	15.2	6	12	90	0.00	30.250 
14:40	26.4	21.6	26.4	63	15.5	4	14	90	0.00	30.250 
14:45	26.4	21.6	26.4	63	15.5	4	11	90	0.00	30.239 
14:50	26.4	19.6	26.4	63	15.5	6	12	90	0.00	30.239 
14:55	26.4	19.6	26.4	63	15.5	6	13	90	0.00	30.239 
15:00	26.4	18.7	26.4	63	15.5	7	14	90	0.00	30.219 
15:05	26.4	20.5	26.4	62	15.2	5	11	90	0.00	30.219 
15:10	26.6	20.7	26.6	63	15.7	5	11	90	0.00	30.219 
15:15	26.4	19.6	26.4	64	15.9	6	12	90	0.00	30.204 
15:20	26.4	19.6	26.4	64	15.9	6	13	90	0.00	30.204 
15:25	26.3	18.6	26.3	65	16.2	7	15	90	0.00	30.204 
15:30	26.3	21.5	26.3	66	16.5	4	13	90	0.00	30.195 
15:35	26.1	19.2	26.1	66	16.3	6	13	90	0.00	30.195 
15:40	26.1	18.4	26.1	67	16.7	7	14	90	0.00	30.195 
15:45	26.0	20.0	26.0	68	16.9	5	12	90	0.00	30.187 
15:50	26.0	18.3	26.0	68	16.9	7	13	90	0.00	30.187 
15:55	26.0	19.1	26.0	69	17.2	6	12	112	0.00	30.187 
16:00	25.8	18.8	25.8	69	17.1	6	11	90	0.00	30.184 
16:05	26.0	21.1	26.0	69	17.2	4	10	90	0.00	30.184 
16:10	25.8	18.0	25.8	71	17.7	7	16	90	0.00	30.184 
16:15	25.7	19.7	25.7	71	17.6	5	11	90	0.00	30.170 
16:20	25.7	18.7	25.7	72	17.9	6	13	90	0.00	30.170 
16:25	25.7	20.8	25.7	72	17.9	4	14	90	0.00	30.170 
16:30	25.7	19.7	25.7	72	17.9	5	11	90	0.00	30.162 
16:35	25.7	19.7	25.7	72	17.9	5	12	90	0.00	30.162 
16:40	25.6	18.6	25.6	73	18.2	6	14	112	0.00	30.162 
16:45	25.6	19.6	25.6	73	18.2	5	12	112	0.00	30.148 
16:50	25.6	20.7	25.6	74	18.5	4	10	90	0.00	30.148 
16:55	25.6	19.6	25.6	75	18.8	5	11	90	0.00	30.148 
17:00	25.4	18.4	25.4	76	18.9	6	14	90	0.00	30.142 
17:05	25.3	19.2	25.3	78	19.4	5	14	90	0.00	30.142 
17:10	25.3	20.3	25.3	79	19.7	4	10	90	0.00	30.142 
17:15	25.3	20.3	25.3	79	19.7	4	10	112	0.00	30.144 
17:20	25.3	25.3	25.3	79	19.7	3	7	112	0.00	30.144 
17:25	25.3	25.3	25.3	79	19.7	3	8	90	0.00	30.144 
17:30	25.3	20.3	25.3	79	19.7	4	10	90	0.00	30.143 
17:35	25.4	25.4	25.4	78	19.5	3	7	90	0.00	30.143 
17:40	25.4	25.4	25.4	79	19.8	3	7	90	0.00	30.143 
17:45	25.4	25.4	25.4	79	19.8	2	5	90	0.00	30.139 
17:50	25.4	19.3	25.4	79	19.8	5	9	112	0.00	30.139 
17:55	25.4	19.3	25.4	79	19.8	5	14	90	0.00	30.139 
18:00	25.4	18.4	25.4	80	20.1	6	11	90	0.00	30.121 
18:05	25.3	19.2	25.3	81	20.3	5	11	112	0.00	30.121 
18:10	25.1	20.1	25.1	83	20.7	4	9	90	0.00	30.121 
18:15	25.0	18.9	25.0	84	20.9	5	14	90	0.00	30.105 
18:20	24.8	18.6	24.8	85	20.9	5	11	90	0.00	30.105 
18:25	24.8	18.6	24.8	86	21.2	5	11	90	0.00	30.105 
18:30	24.7	17.5	24.7	87	21.4	6	12	90	0.00	30.105 
18:35	24.5	17.3	24.5	87	21.2	6	12	90	0.00	30.105 
18:40	24.5	19.4	24.5	88	21.5	4	9	112	0.00	30.105 
18:45	24.5	19.4	24.5	88	21.5	4	7	90	0.00	30.108 
18:50	24.7	19.6	24.7	88	21.7	4	11	112	0.00	30.108 
18:55	24.5	24.5	24.5	89	21.7	3	11	90	0.00	30.108 
19:00	24.7	24.7	24.7	89	21.9	2	8	68	0.00	30.110 
19:05	24.5	24.5	24.5	89	21.7	3	10	90	0.00	30.110 
19:10	24.5	19.4	24.5	89	21.7	4	7	90	0.00	30.110 
19:15	24.5	24.5	24.5	89	21.7	2	7	90	0.00	30.098 
19:20	24.5	24.5	24.5	90	22.0	2	6	90	0.00	30.098 
19:25	24.5	24.5	24.5	90	22.0	3	7	90	0.00	30.098 
19:30	24.5	19.4	24.5	90	22.0	4	9	112	0.00	30.098 
19:35	24.5	24.5	24.5	90	22.0	2	6	90	0.00	30.098 
19:40	24.5	24.5	24.5	90	22.0	3	6	112	0.00	30.098 
19:45	24.5	24.5	24.5	90	22.0	3	9	90	0.00	30.090 
19:50	24.5	24.5	24.5	90	22.0	2	9	90	0.00	30.090 
19:55	24.7	24.7	24.7	90	22.2	2	5	112	0.00	30.090 
20:00	24.7	24.7	24.7	91	22.5	3	7	90	0.00	30.084 
20:05	24.7	19.6	24.7	91	22.5	4	10	112	0.00	30.084 
20:10	24.7	19.6	24.7	91	22.5	4	7	112	0.00	30.084 
20:15	24.7	19.6	24.7	91	22.5	4	10	112	0.00	30.061 
20:20	24.7	24.7	24.7	91	22.5	2	7	112	0.00	30.061 
20:25	24.7	24.7	24.7	91	22.5	3	7	90	0.00	30.061 
20:30	24.7	24.7	24.7	91	22.5	3	9	90	0.00	30.058 
20:35	24.7	19.6	24.7	91	22.5	4	9	90	0.00	30.058 
20:40	24.7	19.6	24.7	91	22.5	4	6	90	0.00	30.058 
20:45	24.8	24.8	24.8	91	22.6	2	5	90	0.00	30.057 
20:50	24.8	24.8	24.8	91	22.6	2	6	90	0.00	30.057 
20:55	24.8	24.8	24.8	91	22.6	3	6	90	0.00	30.057 
21:00	25.0	25.0	25.0	91	22.8	2	4	90	0.00	30.057 
21:05	25.0	25.0	25.0	91	22.8	2	5	90	0.00	30.057 
21:10	25.0	25.0	25.0	91	22.8	3	7	112	0.00	30.057 
21:15	25.0	25.0	25.0	92	23.0	2	4	90	0.00	30.046 
21:20	25.0	25.0	25.0	92	23.0	3	6	112	0.00	30.046 
21:25	25.0	25.0	25.0	92	23.0	1	5	90	0.00	30.046 
21:30	25.0	25.0	25.0	92	23.0	2	4	90	0.00	30.043 
21:35	25.1	25.1	25.1	92	23.1	1	5	90	0.00	30.043 
21:40	25.1	25.1	25.1	92	23.1	2	9	112	0.00	30.043 
21:45	25.1	25.1	25.1	92	23.1	2	6	90	0.00	30.045 
21:50	25.1	25.1	25.1	92	23.1	1	3	90	0.00	30.045 
21:55	25.3	25.3	25.3	92	23.3	1	5	90	0.00	30.045 
22:00	25.3	25.3	25.3	92	23.3	0	2	135	0.00	30.035 
22:05	25.3	25.3	25.3	92	23.3	1	2	135	0.00	30.035 
22:10	25.4	25.4	25.4	92	23.4	1	3	135	0.00	30.035 
22:15	25.4	25.4	25.4	92	23.4	1	3	112	0.00	30.026 
22:20	25.6	25.6	25.6	92	23.6	0	1	112	0.00	30.026 
22:25	25.6	25.6	25.6	92	23.6	0	1	112	0.00	30.026 
22:30	25.7	25.7	25.7	92	23.7	0	2	112	0.00	30.023 
22:35	25.7	25.7	25.7	92	23.7	0	2	112	0.00	30.023 
22:40	25.8	25.8	25.8	92	23.8	0	1	112	0.00	30.023 
22:45	25.8	25.8	25.8	93	24.1	0	1	112	0.00	30.016 
22:50	26.0	26.0	26.0	93	24.3	0	1	112	0.00	30.016 
22:55	26.0	26.0	26.0	93	24.3	0	1	112	0.00	30.016 
23:00	26.0	26.0	26.0	93	24.3	0	3	112	0.00	30.006 
23:05	26.0	26.0	26.0	93	24.3	0	1	112	0.00	30.006 
23:10	26.1	26.1	26.1	93	24.4	0	3	112	0.00	30.006 
23:15	26.1	26.1	26.1	93	24.4	0	1	112	0.00	29.997 
23:20	26.3	26.3	26.3	93	24.6	0	1	112	0.00	29.997 
23:25	26.3	26.3	26.3	93	24.6	0	0	---	0.00	29.997 
23:30	26.3	26.3	26.3	93	24.6	0	1	112	0.00	29.994 
23:35	26.4	26.4	26.4	93	24.7	0	0	---	0.00	29.994 
23:40	26.4	26.4	26.4	93	24.7	0	1	112	0.00	29.994 
23:45	26.6	26.6	26.6	93	24.9	0	1	112	0.00	29.991 
23:50	26.6	26.6	26.6	93	24.9	0	0	---	0.00	29.991 
23:55	26.7	26.7	26.7	93	25.0	0	1	112	0.00	29.991 

CoCoRaHS
IN-AL-39
A2 Web Hosting
Creative Commons License
GoDaddy
search engine by freefind advanced

loaded 2018-11-20 02:27:30 • last modified 2010-11-18 10:43:29
Privacy PolicyDisclaimer
• wx.awcolley.com is powered by PmWiki v.2002016 •
• all content (unless otherwise noted) © 2018 A W Colley